Time;durP1;ratioP1;P1;durP2;ratioP2;P2;SDS_P1;SDS_P2;PMS_P1;PMS_P2;Temp;Humidity;BMP_temperature;BMP_pressure;BME280_temperature;BME280_humidity;BME280_pressure;Samples;Min_cycle;Max_cycle;Signal;HPM_P1;HPM_P2
2022/09/22 00:00:13;;;;;;;4.68;2.75;;;12.10;57.50;;;;;;5020664;28;20045;-54
2022/09/22 00:02:46;;;;;;;7.55;3.70;;;12.00;57.60;;;;;;5016345;28;20426;-55
2022/09/22 00:05:22;;;;;;;3.45;2.80;;;12.00;57.70;;;;;;5011987;28;20056;-55
2022/09/22 00:08:04;;;;;;;2.75;2.55;;;12.00;57.70;;;;;;5011077;28;20506;-55
2022/09/22 00:10:42;;;;;;;5.85;2.85;;;12.00;57.70;;;;;;5027806;28;20099;-56
2022/09/22 00:13:16;;;;;;;3.38;3.08;;;11.90;57.70;;;;;;5012225;28;20100;-55
2022/09/22 00:15:50;;;;;;;5.53;3.03;;;11.90;57.70;;;;;;5012864;28;20561;-55
2022/09/22 00:18:19;;;;;;;5.40;3.15;;;11.90;57.80;;;;;;5009941;28;20057;-55
2022/09/22 00:21:06;;;;;;;4.95;3.33;;;11.90;58.40;;;;;;5026859;28;20048;-54
2022/09/22 00:23:41;;;;;;;3.67;3.35;;;11.80;58.00;;;;;;5017395;28;20077;-54
2022/09/22 00:26:19;;;;;;;6.45;3.53;;;11.80;57.80;;;;;;5015968;28;20049;-55
2022/09/22 00:28:51;;;;;;;4.38;3.35;;;11.80;58.00;;;;;;5023604;28;20053;-56
2022/09/22 00:31:33;;;;;;;6.10;3.22;;;11.80;58.00;;;;;;5015923;28;20049;-55
2022/09/22 00:34:17;;;;;;;3.92;3.13;;;11.80;58.00;;;;;;5011161;28;20038;-53
2022/09/22 00:36:53;;;;;;;3.03;2.72;;;11.80;58.30;;;;;;5015287;28;20095;-55
2022/09/22 00:39:27;;;;;;;4.20;3.30;;;11.70;57.90;;;;;;5026081;28;20120;-55
2022/09/22 00:42:00;;;;;;;5.07;3.28;;;11.70;58.20;;;;;;5031441;28;20125;-55
2022/09/22 00:44:43;;;;;;;4.57;3.63;;;11.70;58.50;;;;;;5030931;28;20053;-55
2022/09/22 00:47:49;;;;;;;5.10;3.60;;;11.70;58.30;;;;;;5030140;28;20433;-54
2022/09/22 00:50:28;;;;;;;3.42;2.85;;;11.60;59.00;;;;;;5011878;28;20116;-55
2022/09/22 00:53:15;;;;;;;3.80;3.20;;;11.60;58.20;;;;;;5010330;28;20042;-55
2022/09/22 00:55:58;;;;;;;3.90;3.53;;;11.60;58.30;;;;;;5008184;28;20049;-55
2022/09/22 00:58:38;;;;;;;3.25;2.92;;;11.60;58.40;;;;;;5017494;28;20088;-55
2022/09/22 01:01:18;;;;;;;4.40;3.30;;;11.50;58.40;;;;;;5012084;28;20438;-55
2022/09/22 01:03:55;;;;;;;4.10;3.72;;;11.50;58.60;;;;;;5026102;28;20851;-55
2022/09/22 01:06:30;;;;;;;3.83;3.50;;;11.50;58.30;;;;;;5030007;28;20053;-56
2022/09/22 01:09:08;;;;;;;4.22;3.30;;;11.40;58.20;;;;;;5021924;28;20049;-55
2022/09/22 01:11:45;;;;;;;4.18;3.42;;;11.40;58.40;;;;;;5031211;28;20060;-55
2022/09/22 01:14:52;;;;;;;3.53;3.22;;;11.40;58.30;;;;;;5023110;28;20074;-55
2022/09/22 01:17:47;;;;;;;3.15;2.85;;;11.40;59.00;;;;;;5021300;28;20033;-56
2022/09/22 01:20:43;;;;;;;7.20;3.45;;;11.30;58.80;;;;;;5037622;28;20060;-55
2022/09/22 01:23:45;;;;;;;4.18;3.05;;;11.30;58.20;;;;;;5018521;28;20049;-55
2022/09/22 01:26:27;;;;;;;5.00;3.10;;;11.30;58.70;;;;;;5027463;28;20079;-55
2022/09/22 01:29:29;;;;;;;3.20;2.90;;;11.30;58.40;;;;;;5009585;28;20058;-55
2022/09/22 01:32:13;;;;;;;4.00;3.08;;;11.20;59.10;;;;;;5011257;28;20044;-55
2022/09/22 01:35:03;;;;;;;3.58;3.00;;;11.20;58.30;;;;;;5021976;28;20034;-54
2022/09/22 01:37:49;;;;;;;3.85;3.05;;;11.20;59.00;;;;;;5016494;28;20048;-55
2022/09/22 01:40:35;;;;;;;3.28;2.97;;;11.20;58.70;;;;;;5021951;28;20059;-54
2022/09/22 01:43:38;;;;;;;4.30;3.30;;;11.10;58.70;;;;;;5001404;28;20128;-55
2022/09/22 01:46:55;;;;;;;4.93;3.42;;;11.10;59.30;;;;;;5019450;28;20041;-55
2022/09/22 01:49:38;;;;;;;5.28;2.88;;;11.10;59.40;;;;;;5009449;28;20057;-54
2022/09/22 01:52:22;;;;;;;2.90;2.70;;;11.00;58.70;;;;;;5020573;28;20048;-55
2022/09/22 01:55:21;;;;;;;3.15;2.85;;;11.00;58.70;;;;;;5022476;28;20037;-55
2022/09/22 01:58:01;;;;;;;3.35;2.78;;;11.00;59.10;;;;;;5029411;28;20457;-55
2022/09/22 02:00:39;;;;;;;;;;;11.00;58.60;;;;;;5030387;28;20060;-55
2022/09/22 02:03:25;;;;;;;3.45;3.00;;;11.00;58.90;;;;;;5026251;28;20012;-55
2022/09/22 02:06:29;;;;;;;3.40;2.83;;;11.00;58.90;;;;;;5027250;28;20068;-55
2022/09/22 02:09:09;;;;;;;4.63;2.90;;;10.90;58.80;;;;;;4993462;28;20049;-54
2022/09/22 02:11:45;;;;;;;3.17;2.88;;;10.90;58.60;;;;;;5023743;28;20046;-55
2022/09/22 02:15:01;;;;;;;4.57;2.88;;;10.90;58.60;;;;;;5021877;28;20048;-54
2022/09/22 02:17:34;;;;;;;3.40;2.70;;;10.80;59.10;;;;;;5029652;28;20133;-55
2022/09/22 02:20:25;;;;;;;3.92;3.20;;;10.80;58.60;;;;;;5026687;28;20759;-55
2022/09/22 02:22:58;;;;;;;2.72;2.40;;;10.80;58.70;;;;;;5016365;28;20606;-55
2022/09/22 02:25:39;;;;;;;4.95;2.83;;;10.80;59.00;;;;;;5024374;28;20064;-55
2022/09/22 02:28:21;;;;;;;3.13;2.83;;;10.80;59.00;;;;;;5009242;28;20402;-55
2022/09/22 02:30:58;;;;;;;3.92;2.90;;;10.70;59.10;;;;;;5019628;28;20061;-56
2022/09/22 02:34:06;;;;;;;3.45;2.42;;;10.70;59.10;;;;;;5011972;28;20135;-55
2022/09/22 02:37:19;;;;;;;4.25;2.53;;;10.70;59.10;;;;;;5010427;28;20790;-55
2022/09/22 02:40:04;;;;;;;2.55;2.30;;;10.70;59.80;;;;;;5022226;28;20115;-55
2022/09/22 02:42:49;;;;;;;4.00;2.50;;;10.70;59.10;;;;;;5005669;28;20034;-55
2022/09/22 02:46:05;;;;;;;2.80;2.53;;;10.70;59.30;;;;;;5010220;28;20107;-55
2022/09/22 02:48:42;;;;;;;3.90;2.63;;;10.60;59.80;;;;;;5012639;28;20116;-55
2022/09/22 02:51:15;;;;;;;2.60;2.40;;;10.60;59.40;;;;;;5024155;28;20067;-55
2022/09/22 02:53:46;;;;;;;3.65;2.50;;;10.60;59.10;;;;;;5008292;28;20791;-55
2022/09/22 02:56:22;;;;;;;4.28;2.95;;;10.60;59.10;;;;;;5010409;28;20042;-55
2022/09/22 02:59:12;;;;;;;;;;;;;;;;;;;;;
2022/09/22 03:01:48;;;;;;;4.35;2.85;;;10.50;59.30;;;;;;5013610;28;20615;-54
2022/09/22 03:04:41;;;;;;;3.13;2.30;;;10.50;59.20;;;;;;5013307;28;20058;-55
2022/09/22 03:07:22;;;;;;;2.55;2.35;;;10.50;59.10;;;;;;5021362;28;20053;-55
2022/09/22 03:09:48;;;;;;;2.78;2.58;;;10.50;59.20;;;;;;5022638;28;20048;-55
2022/09/22 03:12:27;;;;;;;3.42;2.47;;;10.40;59.30;;;;;;5013374;28;20050;-55
2022/09/22 03:15:01;;;;;;;2.80;2.50;;;10.40;59.70;;;;;;5013794;28;20077;-55
2022/09/22 03:17:37;;;;;;;4.80;2.47;;;10.40;59.60;;;;;;5027891;28;20044;-55
2022/09/22 03:20:19;;;;;;;3.58;2.90;;;10.40;59.30;;;;;;5030790;28;20052;-55
2022/09/22 03:22:57;;;;;;;3.03;2.50;;;10.30;59.20;;;;;;5016721;28;20601;-54
2022/09/22 03:25:27;;;;;;;3.72;2.70;;;10.30;59.50;;;;;;5022554;28;20049;-55
2022/09/22 03:28:12;;;;;;;3.13;2.80;;;10.30;59.40;;;;;;5013151;28;20120;-55
2022/09/22 03:30:43;;;;;;;4.50;3.03;;;10.30;59.50;;;;;;5013307;28;20045;-55
2022/09/22 03:33:31;;;;;;;3.75;3.45;;;10.30;59.60;;;;;;5005625;28;20128;-54
2022/09/22 03:36:04;;;;;;;3.35;2.67;;;10.20;59.50;;;;;;5031447;28;20125;-54
2022/09/22 03:38:36;;;;;;;3.47;2.85;;;10.30;59.60;;;;;;5027964;28;20042;-55
2022/09/22 03:41:10;;;;;;;6.30;3.35;;;10.20;59.90;;;;;;5022942;28;20029;-55
2022/09/22 03:43:50;;;;;;;;;;;;;;;;;;;;;
2022/09/22 03:46:23;;;;;;;3.80;3.45;;;10.20;59.70;;;;;;5020958;28;20177;-55
2022/09/22 03:49:02;;;;;;;3.65;3.10;;;10.20;59.80;;;;;;5012096;28;20125;-55
2022/09/22 03:51:54;;;;;;;5.18;3.63;;;10.20;59.80;;;;;;5021210;28;20044;-55
2022/09/22 03:54:34;;;;;;;4.45;3.10;;;10.20;59.80;;;;;;5023834;28;20049;-54
2022/09/22 03:57:12;;;;;;;4.60;3.30;;;10.20;59.90;;;;;;5023769;28;20065;-55
2022/09/22 03:59:51;;;;;;;4.57;3.22;;;10.10;59.80;;;;;;5012552;28;20517;-55
2022/09/22 04:02:25;;;;;;;4.10;3.70;;;10.10;60.00;;;;;;5012244;28;20045;-55
2022/09/22 04:04:55;;;;;;;3.22;2.92;;;10.10;59.90;;;;;;5024073;28;20053;-54
2022/09/22 04:07:35;;;;;;;5.35;3.42;;;10.10;60.00;;;;;;5016849;28;20546;-53
2022/09/22 04:10:03;;;;;;;4.70;3.45;;;10.10;60.20;;;;;;5011743;28;20060;-54
2022/09/22 04:12:32;;;;;;;6.85;3.20;;;10.10;60.10;;;;;;5021596;28;20045;-54
2022/09/22 04:15:15;;;;;;;3.83;3.42;;;10.10;60.10;;;;;;5009534;28;20124;-55
2022/09/22 04:17:47;;;;;;;4.00;3.67;;;10.00;60.10;;;;;;5026073;28;20044;-55
2022/09/22 04:20:23;;;;;;;3.88;3.50;;;10.00;60.10;;;;;;5038154;28;20476;-54
2022/09/22 04:23:13;;;;;;;4.18;3.67;;;10.00;60.30;;;;;;5034848;28;20068;-55
2022/09/22 04:25:45;;;;;;;3.72;3.35;;;10.00;60.50;;;;;;5017776;28;20410;-55
2022/09/22 04:28:20;;;;;;;6.05;3.72;;;10.00;60.10;;;;;;5011431;28;20545;-55
2022/09/22 04:31:10;;;;;;;5.53;3.30;;;10.00;60.10;;;;;;5019706;28;20089;-55
2022/09/22 04:33:47;;;;;;;4.25;3.72;;;10.00;61.60;;;;;;5022157;28;20076;-55
2022/09/22 04:36:27;;;;;;;4.22;3.50;;;10.00;60.10;;;;;;5006117;28;20128;-55
2022/09/22 04:38:56;;;;;;;5.18;3.58;;;10.00;60.70;;;;;;5033251;28;20448;-55
2022/09/22 04:41:24;;;;;;;4.82;3.83;;;10.00;60.30;;;;;;5031114;28;20064;-55
2022/09/22 04:44:14;;;;;;;6.20;4.07;;;9.90;60.50;;;;;;5013100;28;20054;-55
2022/09/22 04:47:17;;;;;;;;;;;;;;;;;;;;;
2022/09/22 04:50:03;;;;;;;6.90;3.25;;;9.90;61.20;;;;;;5031280;28;20045;-55
2022/09/22 04:52:42;;;;;;;3.90;3.20;;;9.90;60.80;;;;;;5020795;28;20045;-55
2022/09/22 04:55:21;;;;;;;6.05;3.67;;;9.90;60.50;;;;;;5012658;28;20045;-54
2022/09/22 04:57:58;;;;;;;7.28;4.20;;;9.90;60.40;;;;;;5011448;28;20038;-55
2022/09/22 05:00:48;;;;;;;7.78;3.58;;;9.90;60.60;;;;;;5009063;28;20041;-55
2022/09/22 05:03:31;;;;;;;7.05;4.32;;;9.90;60.90;;;;;;5021209;28;20049;-55
2022/09/22 05:06:13;;;;;;;;;;;9.80;61.00;;;;;;5023958;28;20052;-55
2022/09/22 05:08:55;;;;;;;5.43;3.95;;;9.90;61.60;;;;;;5031426;28;19928;-55
2022/09/22 05:11:34;;;;;;;5.55;4.72;;;9.90;60.80;;;;;;5020019;28;20072;-55
2022/09/22 05:14:14;;;;;;;8.13;5.63;;;9.90;60.90;;;;;;5010094;28;20096;-55
2022/09/22 05:17:00;;;;;;;8.68;5.70;;;9.90;61.30;;;;;;5026281;28;20087;-55
2022/09/22 05:19:41;;;;;;;10.52;5.95;;;9.90;61.70;;;;;;5018738;28;20557;-54
2022/09/22 05:22:23;;;;;;;11.75;5.88;;;9.90;61.80;;;;;;5043006;28;20076;-55
2022/09/22 05:25:02;;;;;;;9.98;5.60;;;9.90;61.80;;;;;;5030121;28;20052;-55
2022/09/22 05:27:49;;;;;;;9.93;5.95;;;10.00;62.40;;;;;;5023330;28;20516;-54
2022/09/22 05:30:28;;;;;;;;;;;;;;;;;;;;;
2022/09/22 05:33:03;;;;;;;7.28;4.80;;;10.00;61.90;;;;;;5010897;28;20052;-55
2022/09/22 05:35:35;;;;;;;6.57;5.03;;;10.00;61.90;;;;;;5018656;28;20044;-55
2022/09/22 05:38:19;;;;;;;5.63;4.32;;;10.00;61.90;;;;;;5027888;28;20075;-55
2022/09/22 05:40:53;;;;;;;6.75;4.90;;;10.00;61.90;;;;;;5005059;28;20045;-55
2022/09/22 05:43:22;;;;;;;8.05;4.45;;;10.00;62.10;;;;;;5025505;28;20453;-55
2022/09/22 05:45:51;;;;;;;7.75;5.05;;;10.00;62.00;;;;;;5025034;28;20045;-55
2022/09/22 05:48:21;;;;;;;8.68;4.70;;;10.00;61.90;;;;;;5024694;28;20045;-55
2022/09/22 05:50:54;;;;;;;7.78;4.50;;;10.00;61.90;;;;;;5024191;28;20071;-55
2022/09/22 05:53:44;;;;;;;6.55;4.50;;;10.00;61.90;;;;;;5023785;28;20541;-55
2022/09/22 05:56:16;;;;;;;8.13;4.13;;;10.00;61.90;;;;;;5008546;28;20119;-53
2022/09/22 05:58:50;;;;;;;8.25;5.00;;;10.10;62.10;;;;;;5009540;28;20057;-53
2022/09/22 06:01:37;;;;;;;4.57;4.13;;;10.10;62.00;;;;;;5018748;28;20069;-56
2022/09/22 06:04:18;;;;;;;5.70;4.57;;;10.10;61.90;;;;;;5010545;28;20045;-56
2022/09/22 06:06:54;;;;;;;5.05;4.25;;;10.10;61.90;;;;;;5026155;28;20121;-56
2022/09/22 06:09:25;;;;;;;4.70;4.05;;;10.10;62.20;;;;;;5010759;28;20120;-55
2022/09/22 06:12:10;;;;;;;5.40;4.10;;;10.10;62.10;;;;;;5024726;28;20103;-56
2022/09/22 06:15:00;;;;;;;6.22;4.18;;;10.10;63.00;;;;;;5024508;28;20132;-55
2022/09/22 06:17:37;;;;;;;6.90;4.60;;;10.20;62.10;;;;;;5007947;28;20136;-56
2022/09/22 06:20:19;;;;;;;6.90;4.80;;;10.20;62.30;;;;;;5009050;28;20046;-56
2022/09/22 06:22:57;;;;;;;6.78;4.38;;;10.20;62.50;;;;;;5009256;28;20056;-56
2022/09/22 06:25:23;;;;;;;9.13;4.75;;;10.20;62.40;;;;;;5021416;28;20048;-54
2022/09/22 06:28:03;;;;;;;7.20;4.95;;;10.20;62.50;;;;;;5007293;28;20073;-56
2022/09/22 06:30:35;;;;;;;7.13;4.90;;;10.30;63.70;;;;;;5022197;28;20048;-55
2022/09/22 06:33:04;;;;;;;8.63;4.65;;;10.30;63.10;;;;;;5022972;28;20421;-56
2022/09/22 06:35:36;;;;;;;7.53;4.07;;;10.30;62.90;;;;;;5026333;28;20072;-55
2022/09/22 06:38:05;;;;;;;6.10;4.93;;;10.30;63.10;;;;;;5023695;28;20820;-55
2022/09/22 06:40:35;;;;;;;7.35;4.57;;;10.40;63.40;;;;;;5029874;28;20116;-56
2022/09/22 06:43:06;;;;;;;7.25;4.18;;;10.40;63.40;;;;;;5034434;28;20042;-56
2022/09/22 06:45:35;;;;;;;7.30;4.78;;;10.40;63.60;;;;;;5021022;28;20121;-56
2022/09/22 06:48:06;;;;;;;5.20;4.65;;;10.50;63.80;;;;;;5013606;28;20814;-56
2022/09/22 06:50:37;;;;;;;6.40;5.03;;;10.50;63.90;;;;;;5012892;28;20081;-56
2022/09/22 06:53:08;;;;;;;7.13;4.38;;;10.50;63.90;;;;;;5020802;28;20392;-55
2022/09/22 06:55:35;;;;;;;6.77;5.60;;;10.60;64.20;;;;;;5028054;28;20041;-55
2022/09/22 06:58:01;;;;;;;8.63;5.15;;;10.60;64.10;;;;;;5013625;28;20042;-56
2022/09/22 07:00:31;;;;;;;10.88;5.40;;;10.70;64.40;;;;;;5026492;28;20484;-56
2022/09/22 07:06:05;;;;;;;9.13;5.88;;;10.80;65.30;;;;;;4981999;28;20422;-52
2022/09/22 07:08:33;;;;;;;7.07;5.22;;;10.90;65.60;;;;;;4981561;28;20067;-52
2022/09/22 07:14:40;;;;;;;6.20;5.35;;;11.00;66.80;;;;;;4974001;28;20042;-54
2022/09/22 07:17:06;;;;;;;8.02;5.05;;;11.00;65.00;;;;;;4987319;28;20110;-54
2022/09/22 07:19:34;;;;;;;6.68;4.85;;;11.10;65.20;;;;;;4985867;28;20065;-55
2022/09/22 07:22:02;;;;;;;5.43;4.50;;;11.20;65.40;;;;;;4977504;28;20630;-51
2022/09/22 07:24:28;;;;;;;6.35;4.80;;;11.20;65.50;;;;;;4988034;28;20691;-54
2022/09/22 07:26:55;;;;;;;9.02;5.15;;;11.30;65.60;;;;;;4988132;28;20054;-54
2022/09/22 07:29:22;;;;;;;10.35;5.65;;;11.30;65.70;;;;;;4985214;28;20054;-52
2022/09/22 07:31:48;;;;;;;9.75;4.70;;;11.40;65.80;;;;;;4987084;28;20043;-55
2022/09/22 07:34:17;;;;;;;7.53;5.22;;;11.40;65.90;;;;;;4985205;28;20046;-53
2022/09/22 07:36:44;;;;;;;8.13;4.40;;;11.50;66.10;;;;;;4987805;28;20045;-55
2022/09/22 07:39:10;;;;;;;8.30;4.65;;;11.60;66.30;;;;;;4990265;28;20483;-53
2022/09/22 07:41:41;;;;;;;6.55;4.72;;;11.60;66.40;;;;;;4979535;28;20031;-56
2022/09/22 07:46:56;;;;;;;6.88;4.50;;;11.80;66.80;;;;;;4993521;28;20047;-54
2022/09/22 07:49:24;;;;;;;7.78;4.93;;;11.90;66.50;;;;;;4989268;28;20592;-55
2022/09/22 07:51:56;;;;;;;9.52;4.30;;;11.90;66.70;;;;;;4983162;28;20042;-54
2022/09/22 07:54:24;;;;;;;5.20;4.13;;;12.00;66.80;;;;;;4971600;28;20061;-56
2022/09/22 07:56:57;;;;;;;8.23;3.95;;;12.10;66.90;;;;;;4993052;28;20038;-56
2022/09/22 07:59:28;;;;;;;4.68;3.97;;;12.20;66.90;;;;;;5018081;23;20476;-56
2022/09/22 08:01:55;;;;;;;6.53;3.90;;;12.30;67.00;;;;;;4986578;28;20035;-55
2022/09/22 08:04:22;;;;;;;5.70;3.97;;;12.30;66.80;;;;;;4984070;28;20085;-56
2022/09/22 08:06:53;;;;;;;7.18;3.97;;;12.30;66.90;;;;;;4992643;28;20038;-55
2022/09/22 08:09:20;;;;;;;5.88;3.65;;;12.40;67.10;;;;;;4978426;28;20061;-54
2022/09/22 08:11:49;;;;;;;7.82;4.05;;;12.50;67.00;;;;;;4985226;28;20490;-56
2022/09/22 08:14:21;;;;;;;8.68;3.70;;;12.60;67.10;;;;;;4984497;28;20154;-56
2022/09/22 08:16:52;;;;;;;8.82;4.05;;;12.60;66.90;;;;;;4993023;28;20383;-54
2022/09/22 08:19:21;;;;;;;6.80;4.18;;;12.70;66.90;;;;;;4955155;28;20154;-56
2022/09/22 08:21:51;;;;;;;6.63;4.22;;;12.80;67.00;;;;;;4971930;28;20062;-56
2022/09/22 08:24:20;;;;;;;6.40;3.33;;;12.80;67.20;;;;;;4970695;28;20050;-56
2022/09/22 08:26:52;;;;;;;5.57;3.75;;;12.90;67.10;;;;;;4972433;28;20043;-55
2022/09/22 08:29:20;;;;;;;6.30;3.67;;;13.00;67.10;;;;;;4980217;28;20042;-55
2022/09/22 08:31:54;;;;;;;5.95;3.92;;;13.00;67.10;;;;;;4982349;28;20046;-56
2022/09/22 08:34:21;;;;;;;7.20;3.60;;;13.10;67.30;;;;;;4991014;28;20046;-56
2022/09/22 08:36:50;;;;;;;4.57;3.60;;;13.20;67.40;;;;;;4985675;28;20044;-56
2022/09/22 08:39:17;;;;;;;4.05;3.45;;;13.20;67.30;;;;;;4983398;28;20043;-55
2022/09/22 08:42:11;;;;;;;6.55;3.88;;;13.30;67.30;;;;;;4991874;28;20041;-56
2022/09/22 08:45:20;;;;;;;5.72;3.60;;;13.40;68.20;;;;;;4981943;28;20044;-56
2022/09/22 08:53:50;;;;;;;7.78;3.97;;;13.70;67.20;;;;;;4952587;29;20043;-56
2022/09/22 08:56:34;;;;;;;4.18;3.33;;;13.80;66.70;;;;;;4957651;28;20043;-57
2022/09/22 08:59:11;;;;;;;6.53;3.30;;;13.80;67.20;;;;;;4974407;28;20059;-56
2022/09/22 09:01:52;;;;;;;3.75;3.17;;;13.90;66.70;;;;;;4973117;28;20049;-56
2022/09/22 09:04:46;;;;;;;4.40;3.00;;;14.00;67.00;;;;;;4971802;28;20600;-57
2022/09/22 09:07:22;;;;;;;3.92;2.90;;;14.10;67.20;;;;;;4979539;28;20050;-57
2022/09/22 09:10:06;;;;;;;4.32;2.67;;;14.10;66.80;;;;;;4979766;28;20528;-56
2022/09/22 09:12:35;;;;;;;4.47;3.05;;;14.20;66.50;;;;;;4952517;29;20070;-57
2022/09/22 09:15:25;;;;;;;5.03;2.92;;;14.30;66.70;;;;;;4963283;28;20039;-57
2022/09/22 09:17:57;;;;;;;2.85;2.22;;;14.40;66.70;;;;;;4968778;28;20030;-56
2022/09/22 09:20:46;;;;;;;3.50;2.47;;;14.50;66.60;;;;;;4969776;28;20051;-57
2022/09/22 09:23:21;;;;;;;3.80;2.78;;;14.60;66.80;;;;;;4957895;28;20554;-56
2022/09/22 09:25:52;;;;;;;5.57;3.05;;;14.70;66.10;;;;;;4976629;28;20133;-57
2022/09/22 09:28:28;;;;;;;3.85;2.60;;;14.70;65.80;;;;;;4980093;28;20038;-56
2022/09/22 09:31:05;;;;;;;6.97;2.92;;;14.80;65.70;;;;;;4973448;28;20093;-57
2022/09/22 09:33:58;;;;;;;5.68;2.75;;;14.90;65.90;;;;;;4984906;28;20061;-56
2022/09/22 09:36:30;;;;;;;5.50;2.85;;;15.00;66.00;;;;;;4985692;28;20049;-57
2022/09/22 09:38:59;;;;;;;5.03;2.47;;;15.10;65.40;;;;;;4985398;28;20057;-56
2022/09/22 09:41:31;;;;;;;4.80;2.92;;;15.20;65.60;;;;;;4967155;28;20051;-55
2022/09/22 09:44:00;;;;;;;7.13;3.55;;;15.20;65.40;;;;;;4974647;28;20118;-56
2022/09/22 09:46:59;;;;;;;2.47;2.28;;;15.30;65.50;;;;;;4983171;28;20042;-56
2022/09/22 09:49:25;;;;;;;3.72;2.33;;;15.40;65.50;;;;;;4932179;29;20055;-57
2022/09/22 09:51:59;;;;;;;2.33;2.08;;;15.50;64.70;;;;;;4961776;28;20049;-56
2022/09/22 09:54:28;;;;;;;4.70;2.00;;;15.60;64.90;;;;;;4984495;28;20041;-57
2022/09/22 09:57:14;;;;;;;3.22;2.08;;;15.70;63.60;;;;;;4975541;28;20121;-55
2022/09/22 10:02:55;;;;;;;2.90;1.95;;;15.80;63.40;;;;;;4971187;28;20042;-57
2022/09/22 10:05:25;;;;;;;2.30;1.50;;;15.90;62.70;;;;;;4963195;28;20701;-56
2022/09/22 10:07:59;;;;;;;2.08;1.63;;;16.00;62.30;;;;;;4986561;28;20034;-56
2022/09/22 10:10:31;;;;;;;4.13;1.80;;;16.10;62.50;;;;;;4987375;28;20057;-56
2022/09/22 10:13:03;;;;;;;5.30;1.58;;;16.20;61.80;;;;;;4971891;28;20035;-57
2022/09/22 10:15:33;;;;;;;3.53;1.65;;;16.20;61.40;;;;;;4981837;28;20042;-57
2022/09/22 10:18:01;;;;;;;3.65;1.48;;;16.30;61.20;;;;;;4970262;28;20121;-57
2022/09/22 10:20:32;;;;;;;2.60;1.23;;;16.40;61.10;;;;;;4969244;28;20113;-56
2022/09/22 10:23:20;;;;;;;2.65;1.40;;;16.50;59.70;;;;;;4967480;28;20113;-56
2022/09/22 10:25:48;;;;;;;1.65;1.30;;;16.50;59.30;;;;;;4972485;28;20514;-57
2022/09/22 10:28:20;;;;;;;1.50;1.08;;;16.60;59.90;;;;;;4972620;28;20051;-57
2022/09/22 10:31:20;;;;;;;1.70;1.05;;;16.70;59.60;;;;;;4975798;28;20042;-57
2022/09/22 10:33:57;;;;;;;1.45;1.00;;;16.70;58.30;;;;;;4982707;28;20057;-57
2022/09/22 10:36:27;;;;;;;3.47;1.42;;;16.80;58.00;;;;;;4990850;28;20039;-57
2022/09/22 10:38:55;;;;;;;1.42;1.00;;;16.90;58.50;;;;;;4977234;28;20027;-57
2022/09/22 10:41:32;;;;;;;2.95;1.27;;;16.90;58.20;;;;;;4980744;28;20077;-57
2022/09/22 10:44:13;;;;;;;0.80;0.80;;;17.00;58.30;;;;;;4982684;28;20043;-57
2022/09/22 10:47:24;;;;;;;6.57;2.25;;;17.10;57.50;;;;;;4991076;28;20046;-57
2022/09/22 10:50:30;;;;;;;1.95;1.40;;;17.20;56.90;;;;;;4977740;28;20038;-57
2022/09/22 10:53:30;;;;;;;1.83;0.75;;;17.20;56.70;;;;;;4974875;28;20042;-57
2022/09/22 10:56:28;;;;;;;1.40;0.70;;;17.30;56.80;;;;;;4970642;28;20071;-57
2022/09/22 10:59:11;;;;;;;2.42;1.05;;;17.40;55.40;;;;;;4977356;28;20047;-57
2022/09/22 11:02:17;;;;;;;1.52;0.80;;;17.50;55.90;;;;;;4976031;28;20058;-57
2022/09/22 11:04:54;;;;;;;2.60;0.73;;;17.60;56.50;;;;;;4951413;29;20049;-57
2022/09/22 11:13:49;;;;;;;1.25;0.68;;;18.00;55.00;;;;;;4989427;28;20050;-57
2022/09/22 11:16:52;;;;;;;1.00;0.43;;;18.20;54.90;;;;;;4978433;28;20597;-57
2022/09/22 11:19:26;;;;;;;;;;;18.40;54.50;;;;;;4971065;28;20049;-56
2022/09/22 11:22:29;;;;;;;0.40;0.40;;;18.60;54.90;;;;;;4977811;28;19926;-57
2022/09/22 11:25:14;;;;;;;0.80;0.50;;;18.70;53.80;;;;;;4974216;28;20053;-57
2022/09/22 11:28:03;;;;;;;0.95;0.50;;;18.80;52.20;;;;;;4981770;28;20113;-57
2022/09/22 11:30:39;;;;;;;0.98;0.50;;;18.90;52.00;;;;;;4985834;28;20046;-57
2022/09/22 11:33:21;;;;;;;1.58;0.60;;;19.10;52.00;;;;;;4994426;28;20105;-57
2022/09/22 11:36:15;;;;;;;2.38;0.65;;;19.20;51.00;;;;;;4975615;28;20099;-57
2022/09/22 11:39:06;;;;;;;2.05;0.73;;;19.30;50.70;;;;;;4973242;28;20051;-57
2022/09/22 11:42:01;;;;;;;1.38;0.60;;;19.30;50.10;;;;;;4977910;28;20130;-57
2022/09/22 11:44:40;;;;;;;1.65;0.60;;;19.40;51.40;;;;;;4987997;28;20051;-57
2022/09/22 11:47:19;;;;;;;0.82;0.30;;;19.50;50.00;;;;;;4989794;28;20042;-57
2022/09/22 11:50:13;;;;;;;0.55;0.55;;;19.50;49.20;;;;;;4987098;28;20521;-57
2022/09/22 11:53:00;;;;;;;3.58;0.55;;;19.50;48.80;;;;;;4987047;28;20038;-57
2022/09/22 11:55:44;;;;;;;1.05;0.98;;;19.50;48.30;;;;;;4980857;28;20058;-57
2022/09/22 11:58:21;;;;;;;0.77;0.70;;;19.60;48.20;;;;;;4982468;28;20073;-57
2022/09/22 12:00:54;;;;;;;1.63;0.70;;;19.60;48.00;;;;;;4992541;28;20042;-57
2022/09/22 12:03:32;;;;;;;1.20;0.50;;;19.60;48.30;;;;;;4989630;28;20072;-57
2022/09/22 12:06:13;;;;;;;0.77;0.68;;;19.60;47.10;;;;;;4978215;28;20514;-57
2022/09/22 12:08:56;;;;;;;2.00;1.17;;;19.60;46.60;;;;;;4975846;28;20042;-57
2022/09/22 12:11:27;;;;;;;0.93;0.40;;;19.60;46.80;;;;;;4973514;28;20031;-57
2022/09/22 12:13:55;;;;;;;0.80;0.50;;;19.60;47.60;;;;;;4975318;28;20121;-57
2022/09/22 12:16:40;;;;;;;2.90;1.00;;;19.70;47.10;;;;;;4985846;28;20129;-57
2022/09/22 12:19:20;;;;;;;3.78;0.52;;;19.70;45.90;;;;;;4974266;28;20038;-57
2022/09/22 12:22:03;;;;;;;1.25;0.95;;;19.70;45.80;;;;;;4974856;28;20384;-56
2022/09/22 12:24:30;;;;;;;0.60;0.57;;;19.80;46.40;;;;;;4986114;28;20053;-57
2022/09/22 12:26:57;;;;;;;0.73;0.65;;;19.80;46.50;;;;;;4988844;28;20430;-57
2022/09/22 12:29:28;;;;;;;0.60;0.60;;;19.80;46.00;;;;;;4992828;28;20064;-57
2022/09/22 12:31:57;;;;;;;0.40;0.35;;;19.90;45.50;;;;;;4976281;28;20051;-57
2022/09/22 12:34:24;;;;;;;1.00;0.65;;;20.00;45.50;;;;;;4975208;28;20058;-57
2022/09/22 12:37:07;;;;;;;1.00;0.75;;;20.00;45.50;;;;;;4971028;28;20042;-57
2022/09/22 12:39:40;;;;;;;0.52;0.52;;;20.00;43.60;;;;;;4967993;28;20049;-58
2022/09/22 12:42:21;;;;;;;0.52;0.52;;;20.00;44.30;;;;;;4973403;28;20061;-57
2022/09/22 12:44:53;;;;;;;0.60;0.52;;;20.10;43.80;;;;;;4961962;28;20058;-57
2022/09/22 12:47:33;;;;;;;1.85;0.40;;;20.10;44.10;;;;;;4974183;28;20046;-57
2022/09/22 12:50:05;;;;;;;0.68;0.68;;;20.10;43.90;;;;;;4981127;28;20042;-57
2022/09/22 12:52:41;;;;;;;0.57;0.30;;;20.20;43.30;;;;;;4978852;28;20043;-57
2022/09/22 12:55:29;;;;;;;1.15;0.93;;;20.30;43.00;;;;;;4973246;28;20038;-57
2022/09/22 12:57:58;;;;;;;0.75;0.50;;;20.40;42.80;;;;;;4977891;28;20072;-57
2022/09/22 13:00:39;;;;;;;1.58;0.70;;;20.40;43.20;;;;;;4965522;28;20682;-57
2022/09/22 13:03:24;;;;;;;0.40;0.40;;;20.50;41.10;;;;;;4964953;28;20043;-57
2022/09/22 13:06:15;;;;;;;0.50;0.50;;;20.60;41.50;;;;;;4972232;28;20126;-57
2022/09/22 13:08:42;;;;;;;0.50;0.50;;;20.70;42.50;;;;;;4934638;28;20122;-55
2022/09/22 13:11:09;;;;;;;0.60;0.60;;;20.70;42.80;;;;;;4972547;28;20582;-57
2022/09/22 13:13:41;;;;;;;2.50;0.90;;;20.80;42.30;;;;;;4958812;28;20886;-57
2022/09/22 13:16:13;;;;;;;1.40;0.63;;;20.90;41.70;;;;;;4963165;28;20054;-57
2022/09/22 13:18:44;;;;;;;;;;;21.00;41.80;;;;;;4960609;28;20031;-57
2022/09/22 13:21:10;;;;;;;0.77;0.60;;;21.10;43.40;;;;;;4967075;28;20009;-57
2022/09/22 13:23:38;;;;;;;1.70;0.60;;;21.20;43.10;;;;;;4970455;28;20381;-57
2022/09/22 13:26:12;;;;;;;1.00;0.50;;;21.30;42.40;;;;;;4960893;28;20135;-57
2022/09/22 13:28:39;;;;;;;1.05;0.47;;;21.40;41.70;;;;;;4974232;28;20065;-57
2022/09/22 13:31:13;;;;;;;0.70;0.50;;;21.50;41.70;;;;;;4970864;28;20061;-57
2022/09/22 13:33:40;;;;;;;1.05;0.50;;;21.70;41.50;;;;;;4968464;28;20047;-57
2022/09/22 13:36:16;;;;;;;0.60;0.40;;;21.90;42.20;;;;;;4971649;28;20493;-57
2022/09/22 13:38:49;;;;;;;1.13;0.50;;;22.40;41.50;;;;;;4977223;28;20390;-57
2022/09/22 13:41:22;;;;;;;1.27;0.50;;;23.10;42.80;;;;;;4980780;28;20520;-57
2022/09/22 13:44:02;;;;;;;1.15;0.50;;;24.10;42.00;;;;;;4968729;28;20042;-58
2022/09/22 13:46:43;;;;;;;0.40;0.40;;;25.40;42.30;;;;;;4965522;28;20070;-57
2022/09/22 13:49:16;;;;;;;0.90;0.60;;;26.80;41.00;;;;;;4969068;28;20050;-58
2022/09/22 13:51:53;;;;;;;1.85;0.40;;;28.20;40.10;;;;;;4972184;28;20046;-58
2022/09/22 13:54:23;;;;;;;0.57;0.50;;;29.60;37.50;;;;;;4969448;28;20057;-58
2022/09/22 13:56:49;;;;;;;2.45;0.70;;;31.00;38.10;;;;;;4967165;28;20046;-58
2022/09/22 13:59:17;;;;;;;1.20;0.52;;;32.20;36.80;;;;;;4968721;28;20043;-58
2022/09/22 14:01:50;;;;;;;0.38;0.38;;;33.40;35.50;;;;;;4965424;28;20406;-57
2022/09/22 14:04:25;;;;;;;1.60;0.95;;;34.50;33.00;;;;;;4974348;28;20566;-59
2022/09/22 14:06:59;;;;;;;0.70;0.70;;;35.50;31.20;;;;;;4981408;28;20038;-59
2022/09/22 14:09:26;;;;;;;1.50;1.00;;;36.40;30.80;;;;;;4953488;28;20507;-59
2022/09/22 14:11:55;;;;;;;2.45;0.63;;;37.20;30.10;;;;;;4959982;28;20051;-59
2022/09/22 14:14:24;;;;;;;1.27;1.00;;;37.80;29.30;;;;;;4970313;28;20614;-59